Time;durP1;ratioP1;P1;durP2;ratioP2;P2;SDS_P1;SDS_P2;PMS_P1;PMS_P2;Temp;Humidity;BMP_temperature;BMP_pressure;BME280_temperature;BME280_humidity;BME280_pressure;Samples;Min_cycle;Max_cycle;Signal;HPM_P1;HPM_P2
2022/03/31 00:00:07;;;;;;;11.33;10.23;;;12.00;39.10;;;;;;10374286;28;20266;-76
2022/03/31 00:05:13;;;;;;;11.93;10.87;;;12.10;38.90;;;;;;10374308;28;20331;-76
2022/03/31 00:10:20;;;;;;;13.23;12.03;;;12.10;39.10;;;;;;10374204;28;20234;-76
2022/03/31 00:15:24;;;;;;;12.37;11.27;;;12.20;39.50;;;;;;10373954;28;20253;-76
2022/03/31 00:20:29;;;;;;;11.30;10.30;;;12.10;38.40;;;;;;10373464;28;20230;-76
2022/03/31 00:25:33;;;;;;;12.60;11.40;;;12.10;38.90;;;;;;10373704;28;20226;-76
2022/03/31 00:30:36;;;;;;;11.40;10.40;;;12.10;38.40;;;;;;10373428;28;20231;-76
2022/03/31 00:35:41;;;;;;;11.80;10.70;;;12.00;38.40;;;;;;10373127;28;20238;-76
2022/03/31 00:40:44;;;;;;;12.70;11.57;;;12.00;38.80;;;;;;10372561;28;20230;-76
2022/03/31 00:45:48;;;;;;;12.27;11.17;;;12.00;39.20;;;;;;10372388;28;20234;-76
2022/03/31 00:50:53;;;;;;;14.30;12.93;;;12.00;38.50;;;;;;10372541;28;20394;-76
2022/03/31 00:56:01;;;;;;;13.90;12.53;;;12.00;38.90;;;;;;10373347;28;20226;-76
2022/03/31 01:01:04;;;;;;;13.53;12.23;;;12.00;39.40;;;;;;10372734;28;20262;-76
2022/03/31 01:06:09;;;;;;;13.40;12.20;;;12.00;38.70;;;;;;10372984;28;20262;-76
2022/03/31 01:11:12;;;;;;;12.43;11.33;;;12.00;39.10;;;;;;10372290;28;20864;-76
2022/03/31 01:16:16;;;;;;;14.40;13.10;;;12.10;38.70;;;;;;10372521;28;20757;-76
2022/03/31 01:21:21;;;;;;;13.77;12.53;;;12.20;38.70;;;;;;10372615;28;20241;-76
2022/03/31 01:26:25;;;;;;;13.33;11.93;;;12.20;39.10;;;;;;10371971;28;20238;-76
2022/03/31 01:31:28;;;;;;;13.57;12.37;;;12.20;38.90;;;;;;10372137;28;20231;-76
2022/03/31 01:36:32;;;;;;;14.90;13.57;;;12.20;38.60;;;;;;10371650;28;20249;-76
2022/03/31 01:41:36;;;;;;;14.30;13.00;;;12.30;38.60;;;;;;10371228;28;20230;-76
2022/03/31 01:46:39;;;;;;;14.67;13.27;;;12.30;38.80;;;;;;10370936;28;20241;-76
2022/03/31 01:51:43;;;;;;;13.70;12.40;;;12.20;38.40;;;;;;10370454;28;20615;-76
2022/03/31 01:56:48;;;;;;;17.07;15.37;;;12.20;38.40;;;;;;10370668;28;20230;-76
2022/03/31 02:01:51;;;;;;;16.70;15.17;;;12.20;38.80;;;;;;10370735;28;20318;-76
2022/03/31 02:06:54;;;;;;;17.50;15.80;;;12.20;38.50;;;;;;10370405;28;20246;-76
2022/03/31 02:11:59;;;;;;;19.70;17.70;;;12.20;38.40;;;;;;10369792;28;20229;-76
2022/03/31 02:17:02;;;;;;;19.53;17.63;;;12.20;38.90;;;;;;10361979;28;20238;-76
2022/03/31 02:22:07;;;;;;;16.93;15.33;;;12.20;38.40;;;;;;10369940;28;20244;-76
2022/03/31 02:27:12;;;;;;;20.33;18.23;;;12.10;38.40;;;;;;10369532;28;20239;-76
2022/03/31 02:32:16;;;;;;;19.67;17.77;;;12.00;38.80;;;;;;10369639;28;20236;-76
2022/03/31 02:37:19;;;;;;;19.87;17.87;;;12.00;39.00;;;;;;10369517;28;20711;-76
2022/03/31 02:42:24;;;;;;;19.23;17.33;;;11.90;38.60;;;;;;10369160;28;20236;-76
2022/03/31 02:47:27;;;;;;;19.43;17.53;;;11.90;39.00;;;;;;10368851;28;20234;-76
2022/03/31 02:55:24;;;;;;;19.17;17.27;;;11.90;38.90;;;;;;10368898;28;20226;-76
2022/03/31 02:57:56;;;;;;;19.13;17.23;;;11.80;38.90;;;;;;10368647;28;20230;-76
2022/03/31 03:03:00;;;;;;;20.17;18.07;;;11.90;39.50;;;;;;10368776;28;20260;-76
2022/03/31 03:08:04;;;;;;;18.03;16.23;;;11.90;39.00;;;;;;10368502;28;20714;-76
2022/03/31 03:13:08;;;;;;;19.30;17.40;;;11.80;39.10;;;;;;10368639;28;20230;-76
2022/03/31 03:18:12;;;;;;;17.73;15.97;;;11.90;39.40;;;;;;10368160;28;20280;-75
2022/03/31 03:23:15;;;;;;;18.33;16.60;;;11.90;38.90;;;;;;10368022;28;20252;-75
2022/03/31 03:28:20;;;;;;;20.13;18.03;;;11.90;39.00;;;;;;10368426;28;20244;-76
2022/03/31 03:33:23;;;;;;;21.00;18.80;;;11.90;39.30;;;;;;10367917;28;20245;-76
2022/03/31 03:38:26;;;;;;;21.67;19.37;;;11.80;38.80;;;;;;10367900;28;20692;-75
2022/03/31 03:43:31;;;;;;;22.23;19.87;;;11.80;39.00;;;;;;10368111;28;20230;-75
2022/03/31 03:48:35;;;;;;;22.40;19.27;;;11.70;39.30;;;;;;10367568;28;20226;-76
2022/03/31 03:53:38;;;;;;;21.87;19.47;;;11.60;39.10;;;;;;10367703;28;20237;-75
2022/03/31 03:58:42;;;;;;;21.80;19.40;;;11.60;39.20;;;;;;10367494;28;20252;-75
2022/03/31 04:03:45;;;;;;;23.80;20.30;;;11.60;39.70;;;;;;10367308;28;20582;-76
2022/03/31 04:08:49;;;;;;;23.97;20.47;;;11.50;39.30;;;;;;10367195;28;20230;-76
2022/03/31 04:13:53;;;;;;;24.80;21.80;;;11.50;39.50;;;;;;10369092;28;20231;-76
2022/03/31 04:18:56;;;;;;;26.07;21.90;;;11.50;40.00;;;;;;10372885;28;20257;-77
2022/03/31 04:24:00;;;;;;;23.40;20.37;;;11.50;39.60;;;;;;10372756;28;20728;-76
2022/03/31 04:29:08;;;;;;;24.73;21.23;;;11.50;39.60;;;;;;10372198;28;20700;-76
2022/03/31 04:34:14;;;;;;;24.67;22.00;;;11.50;40.20;;;;;;10372394;28;20235;-76
2022/03/31 04:39:18;;;;;;;24.30;21.00;;;11.50;39.70;;;;;;10371569;28;20248;-76
2022/03/31 04:44:22;;;;;;;22.83;20.33;;;11.50;39.70;;;;;;10371300;28;20250;-75
2022/03/31 04:49:25;;;;;;;25.10;21.80;;;11.50;40.20;;;;;;10370961;28;20234;-75
2022/03/31 04:54:29;;;;;;;24.73;20.87;;;11.50;40.00;;;;;;10371266;28;20238;-76
2022/03/31 04:59:34;;;;;;;26.07;22.27;;;11.50;39.90;;;;;;10370462;28;20230;-75
2022/03/31 05:04:37;;;;;;;24.67;21.97;;;11.50;40.50;;;;;;10369935;28;20748;-76
2022/03/31 05:09:41;;;;;;;22.03;18.03;;;11.60;40.60;;;;;;10377078;28;20317;-76
2022/03/31 05:14:46;;;;;;;24.80;20.67;;;11.60;40.10;;;;;;10398638;28;20228;-76
2022/03/31 05:19:49;;;;;;;23.13;19.97;;;11.60;41.00;;;;;;10409627;28;20226;-76
2022/03/31 05:24:52;;;;;;;21.27;18.23;;;11.50;39.90;;;;;;10409513;28;20229;-76
2022/03/31 05:29:57;;;;;;;20.50;18.30;;;11.70;40.00;;;;;;10411760;28;20616;-76
2022/03/31 05:35:00;;;;;;;25.80;20.20;;;11.70;40.40;;;;;;10382758;28;20644;-76
2022/03/31 05:40:06;;;;;;;22.77;20.07;;;11.70;40.00;;;;;;10390708;28;20230;-76
2022/03/31 05:45:13;;;;;;;23.70;21.13;;;11.70;40.10;;;;;;10397243;28;20256;-77
2022/03/31 05:50:16;;;;;;;24.73;21.83;;;11.70;40.70;;;;;;10393794;28;20229;-77
2022/03/31 05:55:20;;;;;;;24.10;20.97;;;11.70;40.10;;;;;;10395117;28;20229;-78
2022/03/31 06:00:25;;;;;;;26.77;23.53;;;11.60;40.20;;;;;;10394639;28;20225;-78
2022/03/31 06:05:28;;;;;;;26.70;22.70;;;11.50;40.90;;;;;;10394515;28;20229;-78
2022/03/31 06:10:31;;;;;;;26.60;22.90;;;11.50;40.40;;;;;;10387361;28;20236;-78
2022/03/31 06:15:36;;;;;;;22.03;19.77;;;11.40;40.50;;;;;;10406836;28;20230;-75
2022/03/31 06:20:39;;;;;;;24.33;21.77;;;11.50;41.30;;;;;;10407950;28;20229;-75
2022/03/31 06:25:43;;;;;;;23.40;20.73;;;11.50;40.70;;;;;;10375744;28;20745;-75
2022/03/31 06:30:48;;;;;;;23.80;21.23;;;11.50;40.90;;;;;;10366370;28;20238;-75
2022/03/31 06:35:51;;;;;;;23.13;20.63;;;11.50;41.30;;;;;;10364822;28;20238;-74
2022/03/31 06:41:07;;;;;;;24.00;20.83;;;11.50;40.50;;;;;;10365123;28;20226;-74
2022/03/31 06:46:12;;;;;;;26.73;22.03;;;11.60;40.60;;;;;;10365862;28;20246;-74
2022/03/31 06:51:17;;;;;;;28.90;23.20;;;11.60;41.30;;;;;;10365912;28;20318;-74
2022/03/31 06:56:21;;;;;;;25.60;21.97;;;11.60;41.10;;;;;;10379656;28;20268;-75
2022/03/31 07:01:26;;;;;;;29.77;23.17;;;11.60;40.60;;;;;;10390976;28;20236;-76
2022/03/31 07:06:30;;;;;;;31.63;24.17;;;11.70;41.40;;;;;;10399808;28;20241;-76
2022/03/31 07:11:34;;;;;;;33.33;24.13;;;11.70;40.70;;;;;;10392868;28;20236;-77
2022/03/31 07:16:43;;;;;;;34.07;25.17;;;11.70;40.80;;;;;;10398473;28;20233;-75
2022/03/31 07:21:48;;;;;;;33.73;25.70;;;11.70;41.10;;;;;;10392147;28;20233;-75
2022/03/31 07:26:52;;;;;;;34.50;25.60;;;11.70;40.70;;;;;;10390361;28;20240;-78
2022/03/31 07:31:57;;;;;;;32.90;26.00;;;11.70;41.20;;;;;;10383722;28;20720;-77
2022/03/31 07:37:01;;;;;;;34.90;25.63;;;11.60;41.30;;;;;;10376822;28;20916;-77
2022/03/31 07:42:04;;;;;;;36.20;26.13;;;11.70;40.90;;;;;;10381117;28;20329;-77
2022/03/31 07:47:09;;;;;;;34.43;26.63;;;11.70;41.10;;;;;;10385263;28;20240;-75
2022/03/31 07:52:13;;;;;;;35.93;27.43;;;11.70;41.40;;;;;;10385568;28;20728;-76
2022/03/31 07:57:36;;;;;;;36.17;25.73;;;11.70;40.90;;;;;;10388336;28;20702;-76
2022/03/31 08:02:42;;;;;;;33.93;26.13;;;11.60;41.10;;;;;;10394394;28;20236;-77
2022/03/31 08:07:45;;;;;;;34.43;25.67;;;11.60;41.30;;;;;;10386899;28;20241;-77
2022/03/31 08:12:49;;;;;;;30.53;23.87;;;11.70;41.40;;;;;;10395932;28;20240;-76
2022/03/31 08:17:53;;;;;;;34.13;25.23;;;11.70;41.40;;;;;;10383544;28;20778;-75
2022/03/31 08:22:57;;;;;;;33.10;24.13;;;11.70;41.40;;;;;;10363955;28;20230;-75
2022/03/31 08:28:00;;;;;;;34.10;26.27;;;11.70;41.40;;;;;;10389376;28;20241;-77
2022/03/31 08:33:10;;;;;;;31.27;23.53;;;11.70;41.40;;;;;;10398488;28;20242;-77
2022/03/31 08:38:19;;;;;;;31.23;23.70;;;11.70;41.40;;;;;;10401861;28;20749;-76
2022/03/31 08:43:26;;;;;;;31.57;23.70;;;11.70;41.40;;;;;;10397410;28;20833;-76
2022/03/31 08:48:32;;;;;;;31.40;23.60;;;11.70;41.40;;;;;;10393378;28;20325;-76
2022/03/31 08:53:35;;;;;;;28.73;22.87;;;11.70;41.40;;;;;;10390407;28;20313;-76
2022/03/31 08:58:39;;;;;;;27.63;22.47;;;11.80;41.50;;;;;;10395728;28;20233;-76
2022/03/31 09:03:44;;;;;;;26.03;23.27;;;11.80;41.50;;;;;;10400936;28;20225;-75
2022/03/31 09:09:07;;;;;;;24.23;20.00;;;11.80;41.50;;;;;;10393496;28;20225;-76
2022/03/31 09:14:10;;;;;;;20.40;18.17;;;11.90;41.20;;;;;;10392571;28;20257;-75
2022/03/31 09:19:17;;;;;;;24.47;20.33;;;12.00;41.40;;;;;;10398537;28;20966;-76
2022/03/31 09:24:21;;;;;;;20.57;18.33;;;12.00;41.70;;;;;;10394788;28;20226;-76
2022/03/31 09:29:25;;;;;;;21.63;19.23;;;12.10;41.20;;;;;;10397184;28;20230;-76
2022/03/31 09:34:39;;;;;;;23.10;19.33;;;12.20;41.20;;;;;;10399784;28;20596;-75
2022/03/31 09:39:43;;;;;;;23.03;20.53;;;12.20;41.90;;;;;;10394011;28;20249;-75
2022/03/31 09:44:57;;;;;;;25.40;20.73;;;12.30;41.00;;;;;;10401839;28;20911;-75
2022/03/31 09:50:01;;;;;;;23.07;20.67;;;12.30;42.00;;;;;;10395950;28;20237;-75
2022/03/31 09:55:06;;;;;;;27.40;24.50;;;12.30;40.90;;;;;;10395029;28;20256;-75
2022/03/31 10:00:10;;;;;;;26.40;23.63;;;12.40;40.80;;;;;;10392973;28;20228;-75
2022/03/31 10:05:16;;;;;;;27.23;24.43;;;12.40;40.90;;;;;;10397348;28;20226;-76
2022/03/31 10:10:20;;;;;;;26.43;23.73;;;12.40;41.10;;;;;;10392749;28;20239;-75
2022/03/31 10:15:29;;;;;;;26.60;23.70;;;12.50;40.70;;;;;;10397419;28;20236;-75
2022/03/31 10:20:34;;;;;;;26.27;23.40;;;12.50;41.10;;;;;;10394369;28;20230;-76
2022/03/31 10:25:39;;;;;;;25.27;22.67;;;12.60;40.90;;;;;;10385714;28;20265;-77
2022/03/31 10:30:54;;;;;;;27.53;24.73;;;12.70;40.80;;;;;;10383500;28;20588;-76
2022/03/31 10:36:10;;;;;;;27.43;24.70;;;12.70;41.50;;;;;;10375567;28;20229;-76
2022/03/31 10:41:14;;;;;;;28.87;25.93;;;12.80;41.50;;;;;;10372128;28;20225;-77
2022/03/31 10:46:19;;;;;;;32.03;28.73;;;12.80;40.70;;;;;;10373246;28;20725;-75
2022/03/31 10:51:34;;;;;;;26.23;23.67;;;12.80;40.60;;;;;;10376667;28;20257;-77
2022/03/31 10:56:38;;;;;;;31.27;27.97;;;12.90;40.80;;;;;;10379760;28;20243;-76
2022/03/31 11:01:41;;;;;;;26.23;23.63;;;12.90;40.40;;;;;;10367604;28;20226;-75
2022/03/31 11:06:51;;;;;;;30.30;27.30;;;12.90;40.30;;;;;;10374188;28;20239;-74
2022/03/31 11:11:55;;;;;;;31.10;28.10;;;12.90;40.80;;;;;;10377012;28;20288;-74
2022/03/31 11:16:59;;;;;;;32.13;28.93;;;12.90;40.30;;;;;;10371902;28;20249;-74
2022/03/31 11:22:04;;;;;;;31.47;28.37;;;12.80;40.30;;;;;;10371777;28;20678;-74
2022/03/31 11:27:07;;;;;;;30.27;27.37;;;12.80;40.50;;;;;;10395265;28;20267;-77
2022/03/31 11:32:10;;;;;;;29.13;26.13;;;12.90;40.30;;;;;;10380599;28;20234;-78
2022/03/31 11:37:19;;;;;;;32.07;29.07;;;12.90;40.30;;;;;;10390610;28;20316;-77
2022/03/31 11:42:22;;;;;;;32.07;29.07;;;12.90;40.80;;;;;;10394896;28;20243;-76
2022/03/31 11:47:27;;;;;;;31.43;28.63;;;12.90;40.50;;;;;;10384791;28;20233;-75
2022/03/31 11:52:33;;;;;;;29.37;26.70;;;12.90;40.30;;;;;;10378625;28;20230;-77
2022/03/31 11:57:36;;;;;;;31.13;28.20;;;12.80;40.50;;;;;;10383374;28;20234;-76
2022/03/31 12:02:40;;;;;;;31.13;28.23;;;12.80;40.30;;;;;;10382563;28;20349;-75
2022/03/31 12:07:46;;;;;;;31.20;28.30;;;12.80;40.40;;;;;;10379329;28;20339;-77
2022/03/31 12:12:50;;;;;;;31.17;28.27;;;12.80;40.60;;;;;;10384124;28;20229;-77
2022/03/31 12:17:59;;;;;;;31.13;28.30;;;12.80;40.60;;;;;;10387788;28;20237;-75
2022/03/31 12:23:05;;;;;;;31.17;28.33;;;12.70;41.00;;;;;;10391658;28;20230;-75
2022/03/31 12:28:09;;;;;;;29.47;26.87;;;12.70;40.70;;;;;;10387701;28;20262;-76
2022/03/31 12:33:34;;;;;;;26.57;24.17;;;12.60;40.30;;;;;;10381651;28;20221;-76
2022/03/31 12:38:45;;;;;;;28.20;25.60;;;12.60;41.50;;;;;;10377996;28;20229;-75
2022/03/31 12:44:00;;;;;;;26.47;24.17;;;12.70;41.60;;;;;;10382415;28;20240;-76
2022/03/31 12:49:07;;;;;;;25.70;23.40;;;12.60;41.50;;;;;;10390944;28;20226;-76
2022/03/31 12:54:26;;;;;;;26.43;24.13;;;12.60;41.00;;;;;;10393930;28;20233;-75
2022/03/31 12:59:31;;;;;;;27.67;25.17;;;12.60;41.60;;;;;;10388049;28;20230;-75
2022/03/31 13:04:35;;;;;;;28.43;25.90;;;12.60;40.90;;;;;;10390982;28;20604;-76
2022/03/31 13:09:40;;;;;;;28.27;25.77;;;12.60;40.80;;;;;;10392219;28;20736;-76
2022/03/31 13:14:45;;;;;;;28.60;26.00;;;12.70;41.00;;;;;;10392930;28;20715;-76
2022/03/31 13:19:50;;;;;;;26.20;23.80;;;12.70;41.00;;;;;;10400555;28;20229;-75
2022/03/31 13:24:55;;;;;;;25.00;22.90;;;12.80;40.90;;;;;;10390119;28;20227;-75
2022/03/31 13:29:58;;;;;;;21.97;19.97;;;12.90;40.90;;;;;;10395872;28;20714;-74
2022/03/31 13:35:02;;;;;;;23.10;20.90;;;12.90;40.90;;;;;;10394652;28;20230;-75
2022/03/31 13:40:08;;;;;;;18.00;16.43;;;13.00;40.60;;;;;;10398288;28;20777;-74
2022/03/31 13:45:13;;;;;;;16.47;14.80;;;13.00;40.60;;;;;;10396760;28;20225;-75
2022/03/31 13:50:20;;;;;;;16.10;14.70;;;13.10;40.50;;;;;;10390486;28;20553;-76
2022/03/31 13:55:25;;;;;;;20.93;19.13;;;13.10;40.40;;;;;;10396387;28;21160;-76
2022/03/31 14:05:51;;;;;;;20.90;18.93;;;13.20;40.40;;;;;;10399084;28;20226;-76
2022/03/31 14:10:56;;;;;;;20.27;18.37;;;13.20;40.40;;;;;;10395450;28;20597;-76
2022/03/31 14:16:02;;;;;;;19.27;17.57;;;13.20;40.30;;;;;;10386391;28;20658;-76
2022/03/31 14:21:07;;;;;;;19.43;17.83;;;13.30;41.00;;;;;;10397483;28;20279;-76
2022/03/31 14:26:12;;;;;;;21.70;19.80;;;13.40;40.20;;;;;;10391744;28;20229;-76
2022/03/31 14:31:17;;;;;;;23.70;21.50;;;13.40;40.20;;;;;;10387572;28;20257;-75
2022/03/31 14:36:36;;;;;;;25.50;23.30;;;13.50;40.10;;;;;;10389197;28;20229;-73
2022/03/31 14:41:43;;;;;;;26.73;24.33;;;13.60;39.80;;;;;;10388204;28;20607;-75
2022/03/31 14:46:47;;;;;;;25.90;23.67;;;13.50;39.90;;;;;;10388459;28;20698;-74
2022/03/31 14:51:50;;;;;;;24.53;22.47;;;13.50;39.80;;;;;;10390896;28;20272;-75
2022/03/31 14:56:55;;;;;;;24.40;22.30;;;13.40;39.80;;;;;;10385509;28;20270;-74
2022/03/31 15:01:58;;;;;;;21.37;19.47;;;13.50;39.90;;;;;;10390361;28;20237;-75
2022/03/31 15:07:03;;;;;;;18.30;16.70;;;13.60;39.90;;;;;;10390079;28;20237;-76
2022/03/31 15:17:29;;;;;;;16.87;15.27;;;13.70;39.70;;;;;;10390836;28;20711;-75
2022/03/31 15:22:32;;;;;;;17.87;16.23;;;13.70;39.60;;;;;;10388513;28;21166;-74
2022/03/31 15:27:36;;;;;;;18.07;16.47;;;13.70;39.50;;;;;;10397854;28;20324;-74
2022/03/31 15:32:40;;;;;;;18.30;16.60;;;13.70;39.50;;;;;;10386521;28;20234;-74
2022/03/31 15:37:44;;;;;;;18.83;17.03;;;13.70;39.60;;;;;;10384697;28;20324;-74
2022/03/31 15:42:48;;;;;;;17.27;15.70;;;13.70;39.30;;;;;;10388315;28;20230;-74
2022/03/31 15:47:51;;;;;;;17.87;16.17;;;13.70;39.30;;;;;;10394373;28;20237;-74
2022/03/31 15:52:56;;;;;;;16.50;15.03;;;13.70;39.30;;;;;;10386139;28;20232;-74
2022/03/31 15:58:01;;;;;;;16.47;14.97;;;13.70;39.20;;;;;;10381503;28;20238;-71
2022/03/31 16:03:07;;;;;;;15.97;14.37;;;13.60;39.00;;;;;;10386844;28;20229;-72
2022/03/31 16:08:11;;;;;;;15.13;13.80;;;13.60;39.00;;;;;;10382512;28;20284;-71
2022/03/31 16:13:16;;;;;;;15.40;14.00;;;13.50;39.00;;;;;;10389957;28;20249;-72
2022/03/31 16:18:19;;;;;;;15.43;14.03;;;13.50;39.00;;;;;;10392066;28;20226;-72
2022/03/31 16:28:49;;;;;;;14.07;12.87;;;13.40;38.80;;;;;;10388370;28;20233;-72
2022/03/31 16:33:53;;;;;;;15.73;14.17;;;13.30;39.00;;;;;;10393212;28;20313;-72
2022/03/31 16:38:57;;;;;;;15.37;13.87;;;13.30;38.90;;;;;;10391934;28;20940;-71
2022/03/31 16:44:02;;;;;;;15.20;13.80;;;13.20;38.80;;;;;;10391382;28;20236;-72
2022/03/31 16:49:07;;;;;;;14.93;13.63;;;13.20;39.00;;;;;;10390660;28;20226;-72
2022/03/31 16:54:11;;;;;;;16.43;14.93;;;13.10;39.00;;;;;;10387597;28;20230;-72
2022/03/31 16:59:16;;;;;;;17.17;15.47;;;13.10;39.20;;;;;;10394082;28;20292;-72
2022/03/31 17:04:19;;;;;;;17.80;16.07;;;13.10;39.10;;;;;;10390589;28;20702;-71
2022/03/31 17:09:23;;;;;;;18.13;16.50;;;13.00;38.90;;;;;;10396505;28;20237;-72
2022/03/31 17:14:28;;;;;;;20.23;18.30;;;13.00;39.00;;;;;;10392872;28;20233;-72
2022/03/31 17:19:31;;;;;;;18.97;17.03;;;12.90;39.10;;;;;;10398473;28;20226;-72
2022/03/31 17:24:34;;;;;;;21.13;19.10;;;12.90;39.10;;;;;;10397368;28;20225;-72
2022/03/31 17:29:38;;;;;;;21.03;19.03;;;12.80;39.10;;;;;;10390076;28;20237;-72
2022/03/31 17:34:42;;;;;;;17.07;15.47;;;12.80;39.20;;;;;;10382908;28;20793;-74
2022/03/31 17:39:45;;;;;;;17.40;15.50;;;12.70;39.10;;;;;;10379125;28;20233;-76
2022/03/31 17:44:50;;;;;;;16.17;14.57;;;12.60;39.00;;;;;;10375483;28;20234;-78
2022/03/31 17:49:53;;;;;;;15.97;14.37;;;12.60;39.20;;;;;;10377146;28;20241;-74
2022/03/31 17:54:56;;;;;;;15.77;14.17;;;12.40;39.10;;;;;;10380663;28;20225;-74
2022/03/31 18:00:02;;;;;;;15.87;14.20;;;12.40;39.30;;;;;;10386840;28;20237;-73
2022/03/31 18:05:06;;;;;;;16.20;14.60;;;12.40;39.50;;;;;;10382985;28;20237;-74
2022/03/31 18:10:11;;;;;;;16.23;14.63;;;12.40;39.40;;;;;;10386312;28;20661;-74
2022/03/31 18:15:16;;;;;;;17.50;15.80;;;12.40;39.50;;;;;;10379959;28;20233;-74
2022/03/31 18:20:21;;;;;;;18.47;14.97;;;12.30;39.50;;;;;;10381677;28;20230;-74
2022/03/31 18:25:24;;;;;;;16.47;14.87;;;12.30;39.50;;;;;;10387449;28;20600;-74
2022/03/31 18:35:51;;;;;;;16.10;14.50;;;12.30;39.60;;;;;;10373996;28;20258;-72
2022/03/31 18:40:57;;;;;;;18.03;14.77;;;12.20;39.40;;;;;;10379390;28;20236;-73
2022/03/31 18:46:02;;;;;;;15.13;13.63;;;12.20;39.60;;;;;;10385772;28;20799;-74
2022/03/31 18:51:07;;;;;;;14.63;13.23;;;12.20;39.60;;;;;;10372376;28;20238;-73
2022/03/31 18:56:10;;;;;;;15.70;14.30;;;12.20;39.60;;;;;;10382221;28;20237;-74
2022/03/31 19:01:15;;;;;;;15.97;14.57;;;12.20;39.40;;;;;;10380087;28;20240;-74
2022/03/31 19:11:40;;;;;;;14.87;13.40;;;12.10;39.30;;;;;;10378419;28;20239;-74
2022/03/31 19:16:46;;;;;;;14.10;12.80;;;12.00;39.30;;;;;;10376415;28;20603;-73
2022/03/31 19:21:49;;;;;;;14.77;13.47;;;12.00;39.40;;;;;;10378755;28;20597;-73
2022/03/31 19:26:53;;;;;;;14.57;13.27;;;12.00;39.30;;;;;;10378109;28;20301;-73
2022/03/31 19:31:57;;;;;;;15.80;14.33;;;12.00;39.20;;;;;;10383459;28;20284;-73
2022/03/31 19:37:01;;;;;;;16.07;14.67;;;11.90;39.20;;;;;;10390871;28;20657;-74
2022/03/31 19:42:24;;;;;;;16.47;14.97;;;11.90;39.00;;;;;;10368896;28;20237;-74
2022/03/31 19:47:32;;;;;;;14.73;13.37;;;11.80;39.10;;;;;;10392348;28;20721;-74
2022/03/31 19:52:36;;;;;;;13.97;12.67;;;11.80;39.20;;;;;;10389845;28;20312;-74
2022/03/31 19:57:39;;;;;;;14.47;13.23;;;11.80;39.10;;;;;;10389088;28;20320;-72
2022/03/31 20:02:44;;;;;;;14.17;12.77;;;11.70;39.30;;;;;;10381803;28;20705;-72
2022/03/31 20:07:47;;;;;;;14.33;13.10;;;11.70;39.40;;;;;;10383756;28;20230;-72
2022/03/31 20:12:50;;;;;;;14.47;13.17;;;11.70;39.30;;;;;;10385123;28;20244;-72
2022/03/31 20:17:55;;;;;;;12.97;11.83;;;11.60;39.30;;;;;;10385825;28;20257;-72
2022/03/31 20:22:58;;;;;;;13.17;12.07;;;11.60;39.50;;;;;;10387736;28;20222;-72
2022/03/31 20:28:01;;;;;;;12.70;11.53;;;11.60;39.40;;;;;;10384635;28;20226;-72
2022/03/31 20:33:06;;;;;;;12.83;11.73;;;11.60;39.50;;;;;;10382499;28;20241;-72
2022/03/31 20:38:10;;;;;;;12.77;11.67;;;11.60;39.60;;;;;;10384055;28;20226;-72
2022/03/31 20:43:14;;;;;;;12.63;11.53;;;11.60;39.40;;;;;;10383216;28;21043;-72
2022/03/31 20:48:20;;;;;;;13.37;12.17;;;11.60;39.40;;;;;;10380896;28;20313;-71
2022/03/31 20:53:23;;;;;;;13.67;12.47;;;11.60;39.60;;;;;;10383467;28;20237;-72
2022/03/31 20:58:26;;;;;;;13.40;12.20;;;11.60;39.60;;;;;;10378108;28;20616;-72
2022/03/31 21:03:31;;;;;;;14.07;12.80;;;11.60;39.70;;;;;;10393600;28;20221;-72
2022/03/31 21:08:34;;;;;;;12.47;11.47;;;11.60;39.70;;;;;;10392488;28;20234;-72
2022/03/31 21:13:38;;;;;;;13.63;12.43;;;11.50;39.60;;;;;;10392939;28;20225;-72
2022/03/31 21:18:45;;;;;;;13.00;11.90;;;11.50;39.60;;;;;;10390733;28;20237;-72
2022/03/31 21:23:48;;;;;;;13.50;12.40;;;11.50;39.90;;;;;;10398411;28;20222;-72
2022/03/31 21:28:51;;;;;;;14.23;13.03;;;11.50;39.60;;;;;;10393331;28;20345;-72
2022/03/31 21:33:57;;;;;;;13.20;12.10;;;11.50;39.60;;;;;;10395509;28;20743;-72
2022/03/31 21:39:00;;;;;;;15.33;14.03;;;11.40;39.70;;;;;;10394393;28;20236;-72
2022/03/31 21:44:06;;;;;;;14.67;13.37;;;11.40;39.60;;;;;;10394598;28;20221;-72
2022/03/31 21:49:11;;;;;;;14.47;13.27;;;11.40;39.70;;;;;;10397663;28;20353;-72
2022/03/31 21:54:14;;;;;;;14.90;13.60;;;11.40;40.20;;;;;;10396652;28;20244;-72
2022/03/31 21:59:17;;;;;;;14.17;12.97;;;11.30;39.90;;;;;;10391093;28;20233;-72
2022/03/31 22:04:22;;;;;;;12.87;11.77;;;11.30;40.10;;;;;;10400284;28;20616;-72
2022/03/31 22:14:46;;;;;;;12.60;11.60;;;11.30;40.20;;;;;;10394203;28;20229;-72
2022/03/31 22:19:52;;;;;;;12.87;11.67;;;11.30;40.30;;;;;;10399380;28;20229;-72
2022/03/31 22:24:55;;;;;;;12.53;11.43;;;11.20;40.40;;;;;;10395332;28;20228;-72
2022/03/31 22:29:59;;;;;;;12.27;11.17;;;11.20;40.10;;;;;;10397902;28;20283;-72
2022/03/31 22:35:04;;;;;;;13.37;12.07;;;11.20;40.10;;;;;;10395450;28;20232;-72
2022/03/31 22:40:08;;;;;;;12.57;11.47;;;11.20;40.60;;;;;;10395045;28;20725;-72
2022/03/31 22:45:11;;;;;;;12.27;11.27;;;11.10;40.20;;;;;;10396766;28;20312;-72
2022/03/31 22:50:17;;;;;;;12.83;11.63;;;11.10;40.20;;;;;;10403170;28;20717;-72
2022/03/31 22:55:20;;;;;;;12.43;11.33;;;11.00;40.80;;;;;;10394275;28;20241;-72
2022/03/31 23:00:23;;;;;;;12.90;11.70;;;11.00;40.80;;;;;;10394472;28;20240;-72
2022/03/31 23:05:27;;;;;;;12.80;11.70;;;11.00;40.80;;;;;;10381874;28;20240;-72
2022/03/31 23:10:31;;;;;;;13.20;12.03;;;10.90;40.70;;;;;;10381857;28;20241;-72
2022/03/31 23:15:34;;;;;;;13.10;11.90;;;10.90;40.70;;;;;;10398016;28;20317;-72
2022/03/31 23:20:40;;;;;;;13.33;12.13;;;10.90;40.60;;;;;;10400431;28;20234;-72
2022/03/31 23:25:44;;;;;;;13.33;12.20;;;10.80;40.60;;;;;;10387005;28;20252;-72
2022/03/31 23:30:48;;;;;;;13.33;12.17;;;10.80;40.60;;;;;;10376516;28;20238;-72
2022/03/31 23:35:52;;;;;;;14.33;13.03;;;10.70;40.50;;;;;;10390606;28;20232;-72
2022/03/31 23:40:56;;;;;;;13.37;12.17;;;10.60;40.50;;;;;;10386762;28;20228;-72
2022/03/31 23:45:59;;;;;;;13.30;12.10;;;10.60;40.50;;;;;;10387366;28;20653;-72
2022/03/31 23:51:04;;;;;;;12.17;11.10;;;10.50;40.40;;;;;;10384688;28;20230;-72
2022/03/31 23:56:07;;;;;;;12.00;10.90;;;10.50;40.70;;;;;;10393836;28;20241;-72
